Cheboygan, MI

6:46 PM EDT on March 29, 2015 (GMT -0400)
Wildcat North | | Change Station
CLOSE
Current Station
Personal Weather Station
Location: Cheboygan, MI
Elevation: 640 ft
Nearby Weather Stations
Active Advisory: Special Statement

Elev 640 ft 45.58 °N, 84.46 °W | Updated 12 seconds ago

Snow
Snow
32.7 °F
Feels Like 29 °F
N
4.0
Wind Variable Wind from South
Gusts 9.0 mph

Today
High -- | Low -- °F
--% Chance of Precip.
Yesterday
High -- | Low -- °F
Precip. -- in
7:24 AM 8:01 PM
Waxing Gibbous, 75% visible
Pressure 29.55 in
Visibility 2.5 miles
Clouds Scattered Clouds 900 ft
Mostly Cloudy 1600 ft
Overcast 2100 ft
Windchill 29 °F
Dew Point 32 °F
Humidity 97%
Rainfall 0.09 in
Snow Depth Not available.
UV 0.0 out of 12
Pollen 3.10 out of 12
Air Quality Not available.
Flu Activity Not available.
METAR KSLH 292238Z AUTO 20009G14KT 2 1/2SM -SN SCT009 BKN016 OVC021 00/00 A2955 RMK AO2 T00041001

More Conditions Fewer Conditions

Pressure 29.55 in
Visibility 2.5 miles
Clouds Scattered Clouds 900 ft
Mostly Cloudy 1600 ft
Overcast 2100 ft
Windchill 29 °F
Dew Point 32 °F
Humidity 97%
Rainfall 0.09 in
Snow Depth Not available.
UV 0.0 out of 12
Pollen 3.10 out of 12
Air Quality Not available.
Flu Activity Not available.
METAR KSLH 292238Z AUTO 20009G14KT 2 1/2SM -SN SCT009 BKN016 OVC021 00/00 A2955 RMK AO2 T00041001

More Conditions Fewer Conditions

Nowcast | as of 6:00 PM EDT on March 29, 2015

At 7 PM...periods of snow. Temperature 33. Southwest winds 17 mph. At 9 PM...periods of snow. Temperature 33. Southwest winds 16 mph. At 11 PM...periods of snow. Temperature 34. West winds 16 mph. At 1 am...periods of snow. Temperature 34. West winds 20 mph.

×

10-Day Weather Forecast

Almanac

Astronomy

Mar. 29, 2015 Rise Set
Actual Time
Civil Twilight
Nautical Twilight
Astronomical Twilight
Moon
Length of Visible Light
Length of Day
Tomorrow will be .
, % of the Moon is Illuminated

Today's Extremes

State Highs State Lows

Community

WunderPhotos

Upload Photos

1,809,376 photos uploaded!

WunderBlogs® & News

Nearby

Air Quality

  Air Quality AQ Index Pollutant
Not available.

Snow Depth

Station Depth Elevation

Earthquake Activity

City Distance Mag. Time & Date
Minimum magnitude displayed is 2.5.

Coastal Water Temperatures

Place Temperature

Stations

Nearby Weather Stations

Station Location Temp. Windchill Dew Point Humidity Wind Precip. Elev Updated Type
                   
Special Statement
Statement as of 4:32 PM EDT on March 29, 2015

Snow will continue to fall through 6 PM before tapering off.
Visibility may be reduced below one-quarter mile at times in areas
of heavier snow and blowing snow.


Jpb